Flight Track Log - Related Links

Times and Time Zones

All times are in EDT time to prevent confusion due to time zone crossing. See the UCA3597 flight status page for this flight to view local times or setup timezone preferences in your user account.

Time Position Orientation Groundspeed Altitude Reporting Facility
EDT Latitude Longitude Course Direction KTS MPH feet Rate Location/Type
Mon 07:21:02 PM 42.1989 -76.0614 208° Southwest 144 166 4,500  Level New York Center
Mon 07:22:02 PM 42.1494 -76.0964 208° Southwest 164 189 5,800 1,322 Climbing New York Center
Mon 07:23:00 PM 42.0997 -76.1400 213° Southwest 198 228 7,100 1,388 Climbing New York Center
Mon 07:24:03 PM 42.0500 -76.1806 211° Southwest 210 242 8,600 1,500 Climbing New York Center
Mon 07:25:00 PM 42.0003 -76.2214 211° Southwest 218 251 10,100 1,373 Climbing New York Center
Mon 07:26:01 PM 41.9547 -76.2594 212° Southwest 218 251 11,300 1,339 Climbing New York Center
Mon 07:27:01 PM 41.9050 -76.3025 213° Southwest 218 251 12,800 1,488 Climbing New York Center
Mon 07:28:02 PM 41.8508 -76.3481 212° Southwest 218 251 14,300 1,289 Climbing New York Center
Mon 07:29:02 PM 41.8053 -76.3861 212° Southwest 218 251 15,400 814 Climbing New York Center
Mon 07:30:00 PM 41.7467 -76.4367 213° Southwest 218 251 15,900 254 Climbing New York Center
Mon 07:31:00 PM 41.6900 -76.4847 212° Southwest 256 295 15,900 33 Level New York Center
Mon 07:32:00 PM 41.6432 -76.5264 214° Southwest  Level FlightAware Approximate
Mon 07:33:01 PM 41.5514 -76.5978 214° Southwest 285 328 16,000  Level New York Center
Mon 07:34:02 PM 41.4817 -76.6581 213° Southwest 285 328 16,000  Level New York Center
Mon 07:35:00 PM 41.4208 -76.7081 212° Southwest 290 334 16,000 -51 Level New York Center
Mon 07:36:00 PM 41.3536 -76.7631 212° Southwest 296 341 15,900  Descending New York Center
Mon 07:37:01 PM 41.2750 -76.7919 195° South 291 335 16,000 49 Climbing New York Center
Mon 07:38:02 PM 41.1950 -76.8069 188° South 291 335 16,000  Level New York Center
Mon 07:39:02 PM 41.1128 -76.8244 189° South 296 341 16,000  Level New York Center
Mon 07:40:00 PM 41.0331 -76.8364 186° South 296 341 16,000 50 Level New York Center
Mon 07:41:01 PM 40.9425 -76.8558 189° South 296 341 16,100  Climbing New York Center
Mon 07:42:01 PM 40.8647 -76.8708 188° South 296 341 16,000 -50 Descending New York Center
Mon 07:43:02 PM 40.7911 -76.8836 187° South 296 341 16,000  Level New York Center
Mon 07:44:02 PM 40.7061 -76.9117 194° South 296 341 16,000  Level New York Center
Mon 07:45:01 PM 40.6364 -76.9328 193° South 296 341 16,000  Level New York Center
Mon 07:46:01 PM 40.5494 -76.9603 194° South 296 341 16,000  Level New York Center
Mon 07:47:01 PM 40.4775 -76.9814 193° South 302 348 16,000 -99 Level New York Center
Mon 07:48:02 PM 40.3925 -77.0089 194° South 297 342 15,800 -578 Descending New York Center
Mon 07:50:08 PM 40.2333 -77.0500 191° South 301 346 14,200 -806 Descending Potomac TRACON
Mon 07:51:08 PM 40.1500 -77.0833 197° South 302 348 13,300 -850 Descending Potomac TRACON
Mon 07:52:08 PM 40.0667 -77.1000 189° South 298 343 12,500 -750 Descending Potomac TRACON
Mon 07:53:08 PM 39.9833 -77.1333 197° South 296 341 11,800 -800 Descending Potomac TRACON
Mon 07:54:08 PM 39.9167 -77.1667 201° Southwest 294 338 10,900 -850 Descending Potomac TRACON
Mon 07:55:08 PM 39.8333 -77.2000 197° South 290 334 10,100 -800 Descending Potomac TRACON
Mon 07:56:08 PM 39.7667 -77.2167 191° South 286 329 9,300 -550 Descending Potomac TRACON
Mon 07:57:08 PM 39.6833 -77.2500 197° South 283 326 9,000 -150 Descending Potomac TRACON
Mon 07:58:08 PM 39.6167 -77.2833 201° Southwest 275 316 9,000 -150 Level Potomac TRACON
Mon 07:59:08 PM 39.5333 -77.3167 197° South 265 305 8,700 -650 Descending Potomac TRACON
Mon 08:00:08 PM 39.4667 -77.3333 191° South 277 319 7,700 -900 Descending Potomac TRACON
Mon 08:01:08 PM 39.4000 -77.3667 201° Southwest 270 311 6,900 -1,000 Descending Potomac TRACON
Mon 08:02:08 PM 39.3167 -77.3667 180° South 268 308 5,700 -950 Descending Potomac TRACON
Mon 08:03:08 PM 39.2333 -77.3667 180° South 235 270 5,000 -850 Descending Potomac TRACON
Mon 08:04:08 PM 39.1833 -77.3500 166° South 233 268 4,000 -500 Descending Potomac TRACON
Mon 08:05:08 PM 39.1167 -77.3500 180° South 249 287 4,000  Level Potomac TRACON
Mon 08:06:08 PM 39.0333 -77.3500 180° South 252 290 4,000  Level Potomac TRACON
Mon 08:07:08 PM 38.9667 -77.3500 180° South 256 295 4,000  Level Potomac TRACON
Mon 08:08:08 PM 38.9000 -77.3500 180° South 257 296 4,000 -450 Level Potomac TRACON
Mon 08:09:08 PM 38.8333 -77.3667 191° South 255 293 3,100 -1,000 Descending Potomac TRACON
Mon 08:10:08 PM 38.7833 -77.4000 207° Southwest 230 265 2,000 -550 Descending Potomac TRACON
Mon 08:11:08 PM 38.8167 -77.4333 322° Northwest 158 182 2,000 -300 Level Potomac TRACON
Mon 08:12:08 PM 38.8667 -77.4333 360° North 148 170 1,400 -600 Descending Potomac TRACON
Mon 08:13:08 PM 38.9000 -77.4333 360° North 112 129 800 -600 Descending Potomac TRACON
Mon 08:15:00 PM 38.9333 -77.4500 349° North  Level FlightAware Approximate
Mon 08:22:00 PM 38.9474 -77.4599 349° North  Level Estimated
Mon 08:23:00 PM 38.9474 -77.4599 349° North  Level Estimated

Login

Don't have an account? Register now (free) for customized features, flight alerts, and more!